Time;durP1;ratioP1;P1;durP2;ratioP2;P2;SDS_P1;SDS_P2;PMS_P1;PMS_P2;Temp;Humidity;BMP_temperature;BMP_pressure;BME280_temperature;BME280_humidity;BME280_pressure;Samples;Min_cycle;Max_cycle;Signal;HPM_P1;HPM_P2
2021/10/12 00:01:11;;;;;;;4.28;1.08;;;12.40;99.90;;;;;;5133841;27;20024;-71
2021/10/12 00:03:37;;;;;;;5.72;1.40;;;12.40;99.90;;;;;;5132448;28;20043;-71
2021/10/12 00:06:03;;;;;;;7.65;0.90;;;12.40;99.90;;;;;;5132621;28;20474;-71
2021/10/12 00:08:28;;;;;;;4.38;0.98;;;12.30;99.90;;;;;;5132758;28;20103;-72
2021/10/12 00:10:54;;;;;;;4.72;1.38;;;12.30;99.90;;;;;;5133819;28;20355;-71
2021/10/12 00:13:20;;;;;;;6.35;1.38;;;12.30;99.90;;;;;;5132527;28;20023;-72
2021/10/12 00:15:46;;;;;;;7.03;0.90;;;12.20;99.90;;;;;;5132629;28;20023;-71
2021/10/12 00:18:12;;;;;;;5.50;1.13;;;12.30;99.90;;;;;;5132675;28;20030;-67
2021/10/12 00:20:38;;;;;;;7.78;1.45;;;12.20;99.90;;;;;;5133906;27;20055;-68
2021/10/12 00:23:07;;;;;;;6.40;1.10;;;12.20;99.90;;;;;;5133611;27;20043;-70
2021/10/12 00:25:32;;;;;;;2.35;0.63;;;12.20;99.90;;;;;;5132691;28;20026;-68
2021/10/12 00:27:58;;;;;;;2.35;0.55;;;12.30;99.90;;;;;;5115345;28;20396;-69
2021/10/12 00:30:24;;;;;;;1.35;0.40;;;12.30;99.90;;;;;;5132576;28;20031;-70
2021/10/12 00:32:50;;;;;;;2.28;0.70;;;12.20;99.90;;;;;;5132364;27;20042;-68
2021/10/12 00:35:16;;;;;;;1.83;0.80;;;12.20;99.90;;;;;;5098386;28;20094;-69
2021/10/12 00:37:41;;;;;;;7.97;0.90;;;12.30;99.90;;;;;;5132408;28;20030;-67
2021/10/12 00:40:08;;;;;;;7.28;0.93;;;12.30;99.90;;;;;;5116135;27;20068;-68
2021/10/12 00:42:37;;;;;;;1.90;0.77;;;12.20;99.90;;;;;;5136115;27;20059;-71
2021/10/12 00:45:05;;;;;;;2.40;0.45;;;12.20;99.90;;;;;;5119839;27;20500;-71
2021/10/12 00:47:31;;;;;;;2.00;0.57;;;12.20;99.90;;;;;;5136223;27;20489;-71
2021/10/12 00:49:57;;;;;;;1.73;0.40;;;12.10;99.90;;;;;;5119218;27;20054;-72
2021/10/12 00:52:22;;;;;;;1.20;0.30;;;12.10;99.90;;;;;;5119013;27;20118;-73
2021/10/12 00:54:48;;;;;;;4.10;1.30;;;12.20;99.90;;;;;;5136154;27;20030;-73
2021/10/12 00:57:14;;;;;;;5.18;1.30;;;12.10;99.90;;;;;;5118732;27;20026;-74
2021/10/12 00:59:40;;;;;;;2.30;1.02;;;12.20;99.90;;;;;;5118785;27;20511;-74
2021/10/12 01:02:07;;;;;;;2.13;0.47;;;12.20;99.90;;;;;;5118792;27;20298;-73
2021/10/12 01:04:33;;;;;;;1.35;0.52;;;12.20;99.90;;;;;;5135936;27;20477;-74
2021/10/12 01:06:59;;;;;;;3.63;0.68;;;12.20;99.90;;;;;;5118780;27;20031;-74
2021/10/12 01:09:25;;;;;;;2.10;0.77;;;12.30;99.90;;;;;;5137171;27;20380;-74
2021/10/12 01:11:51;;;;;;;2.97;0.70;;;12.30;99.90;;;;;;5136948;27;20038;-74
2021/10/12 01:14:17;;;;;;;2.60;0.60;;;12.30;99.90;;;;;;5136939;27;20114;-75
2021/10/12 01:16:43;;;;;;;5.53;0.98;;;12.30;99.90;;;;;;5139203;27;20027;-72
2021/10/12 01:19:09;;;;;;;8.18;1.55;;;12.30;99.90;;;;;;5118819;27;20043;-72
2021/10/12 01:21:47;;;;;;;9.15;1.08;;;12.20;99.90;;;;;;5138007;27;20034;-72
2021/10/12 01:24:14;;;;;;;6.93;0.85;;;12.10;99.90;;;;;;5118784;27;20019;-70
2021/10/12 01:26:41;;;;;;;2.88;0.90;;;12.10;99.90;;;;;;5119101;27;20105;-69
2021/10/12 01:29:09;;;;;;;7.53;1.20;;;12.00;99.90;;;;;;5136142;27;20481;-69
2021/10/12 01:31:35;;;;;;;5.38;1.23;;;12.00;99.90;;;;;;5102480;27;20074;-69
2021/10/12 01:34:01;;;;;;;5.05;1.52;;;12.00;99.90;;;;;;5137964;27;20478;-69
2021/10/12 01:36:27;;;;;;;4.68;1.15;;;12.00;99.90;;;;;;5137513;27;20031;-70
2021/10/12 01:38:52;;;;;;;3.80;0.95;;;12.00;99.90;;;;;;5118130;27;20163;-68
2021/10/12 01:41:18;;;;;;;4.32;0.70;;;12.00;99.90;;;;;;5135381;27;20079;-68
2021/10/12 01:43:44;;;;;;;3.67;1.02;;;12.10;99.90;;;;;;5135665;27;20120;-69
2021/10/12 01:46:10;;;;;;;5.13;0.90;;;12.10;99.90;;;;;;5118389;27;20102;-70
2021/10/12 01:48:37;;;;;;;3.78;1.50;;;12.10;99.90;;;;;;5101103;27;20106;-69
2021/10/12 01:51:04;;;;;;;2.45;0.80;;;12.10;99.90;;;;;;5134610;27;20020;-69
2021/10/12 01:53:30;;;;;;;4.10;1.25;;;12.20;99.90;;;;;;5134478;27;20026;-69
2021/10/12 01:55:57;;;;;;;6.05;1.33;;;12.20;99.90;;;;;;5117663;27;20100;-69
2021/10/12 01:58:22;;;;;;;5.63;1.50;;;12.30;99.90;;;;;;5135178;27;20019;-69
2021/10/12 02:00:48;;;;;;;2.30;0.80;;;12.30;99.90;;;;;;5134675;27;20118;-71
2021/10/12 02:03:14;;;;;;;3.03;1.15;;;12.30;99.90;;;;;;5134562;27;20179;-72
2021/10/12 02:05:40;;;;;;;4.65;1.40;;;12.30;99.90;;;;;;5134513;27;20019;-71
2021/10/12 02:08:06;;;;;;;4.28;0.98;;;12.30;99.90;;;;;;5117342;27;20474;-71
2021/10/12 02:10:32;;;;;;;3.85;0.95;;;12.30;99.90;;;;;;5134377;27;20027;-71
2021/10/12 02:12:58;;;;;;;6.45;1.63;;;12.40;99.90;;;;;;5135705;27;20028;-71
2021/10/12 02:15:24;;;;;;;4.05;1.17;;;12.40;99.90;;;;;;5134410;27;20358;-74
2021/10/12 02:17:50;;;;;;;7.93;1.58;;;12.40;99.90;;;;;;5117233;27;20031;-74
2021/10/12 02:20:15;;;;;;;4.25;1.70;;;12.40;99.90;;;;;;5134501;27;20048;-75
2021/10/12 02:22:41;;;;;;;4.07;1.10;;;12.40;99.90;;;;;;5117147;27;20544;-75
2021/10/12 02:25:08;;;;;;;6.78;1.58;;;12.40;99.90;;;;;;5135845;27;20373;-76
2021/10/12 02:27:34;;;;;;;10.80;2.15;;;12.20;99.90;;;;;;5116908;27;20172;-76
2021/10/12 02:30:00;;;;;;;8.90;1.77;;;12.40;99.90;;;;;;5116926;27;20537;-74
2021/10/12 02:32:26;;;;;;;7.47;1.67;;;12.40;99.90;;;;;;5116811;27;20043;-76
2021/10/12 02:34:52;;;;;;;5.88;1.60;;;12.40;99.90;;;;;;5116906;27;20496;-78
2021/10/12 02:37:19;;;;;;;8.38;2.25;;;12.50;99.90;;;;;;5116616;27;20474;-79
2021/10/12 02:39:45;;;;;;;5.90;1.27;;;12.50;99.90;;;;;;5100381;27;20110;-77
2021/10/12 02:42:11;;;;;;;9.20;1.90;;;12.50;99.90;;;;;;5116584;27;20085;-76
2021/10/12 02:44:37;;;;;;;5.68;1.85;;;12.50;99.90;;;;;;5134053;27;20027;-77
2021/10/12 02:47:03;;;;;;;7.25;1.92;;;12.40;99.90;;;;;;5116612;27;20023;-74
2021/10/12 02:49:29;;;;;;;2.75;1.48;;;12.60;99.90;;;;;;5117077;27;20037;-76
2021/10/12 02:51:54;;;;;;;8.20;1.65;;;12.40;99.90;;;;;;5116901;27;20023;-76
2021/10/12 02:54:20;;;;;;;10.25;1.42;;;12.40;99.90;;;;;;5116325;27;20026;-75
2021/10/12 02:56:45;;;;;;;2.67;1.02;;;12.40;99.90;;;;;;5133956;27;20461;-78
2021/10/12 02:59:11;;;;;;;4.28;1.40;;;12.40;99.90;;;;;;5116370;27;20038;-72
2021/10/12 03:01:37;;;;;;;3.55;1.20;;;12.40;99.90;;;;;;5133402;27;20098;-71
2021/10/12 03:04:02;;;;;;;7.68;1.55;;;12.40;99.90;;;;;;5133418;27;20481;-72
2021/10/12 03:06:28;;;;;;;7.30;1.60;;;12.40;99.90;;;;;;5116254;27;20028;-71
2021/10/12 03:08:54;;;;;;;3.50;1.83;;;12.40;99.90;;;;;;5116101;27;20096;-70
2021/10/12 03:11:19;;;;;;;6.50;1.98;;;12.40;99.90;;;;;;5116173;27;20028;-71
2021/10/12 03:13:45;;;;;;;10.48;2.47;;;12.50;99.90;;;;;;5133303;27;20019;-70
2021/10/12 03:16:11;;;;;;;6.50;1.40;;;12.50;99.90;;;;;;5134862;27;20024;-70
2021/10/12 03:18:38;;;;;;;8.05;1.77;;;12.50;99.90;;;;;;5098858;27;20039;-71
2021/10/12 03:21:04;;;;;;;5.78;2.65;;;12.50;99.90;;;;;;5133448;27;20033;-70
2021/10/12 03:23:30;;;;;;;6.78;1.60;;;12.50;99.90;;;;;;5133127;27;20114;-71
2021/10/12 03:25:56;;;;;;;7.93;1.40;;;12.40;99.90;;;;;;5132999;27;20102;-72
2021/10/12 03:28:21;;;;;;;5.50;1.15;;;12.30;99.90;;;;;;5115906;27;20083;-70
2021/10/12 03:30:47;;;;;;;7.82;1.27;;;12.20;99.90;;;;;;5116068;27;20019;-70
2021/10/12 03:33:14;;;;;;;14.00;2.15;;;12.20;99.90;;;;;;5116175;27;20023;-71
2021/10/12 03:35:46;;;;;;;4.63;1.08;;;12.20;99.90;;;;;;5116008;28;20026;-70
2021/10/12 03:38:11;;;;;;;6.47;1.30;;;12.30;99.90;;;;;;5116282;27;20114;-70
2021/10/12 03:40:37;;;;;;;8.95;1.80;;;12.30;99.90;;;;;;5099039;28;20442;-71
2021/10/12 03:43:03;;;;;;;6.80;2.95;;;12.30;99.90;;;;;;5115626;27;20046;-73
2021/10/12 03:45:28;;;;;;;11.05;1.92;;;12.30;99.90;;;;;;5132989;27;20106;-71
2021/10/12 03:47:54;;;;;;;11.45;2.50;;;12.20;99.90;;;;;;5115573;28;20504;-71
2021/10/12 03:50:19;;;;;;;18.52;2.58;;;12.20;99.90;;;;;;5115529;28;20477;-73
2021/10/12 03:52:45;;;;;;;12.73;2.50;;;12.20;99.90;;;;;;5115758;28;20427;-71
2021/10/12 03:55:11;;;;;;;12.25;2.55;;;12.20;99.90;;;;;;5115583;28;20011;-72
2021/10/12 03:57:37;;;;;;;11.57;1.95;;;12.10;99.90;;;;;;5132769;27;20043;-73
2021/10/12 04:00:04;;;;;;;11.43;2.15;;;12.10;99.90;;;;;;5134063;27;20485;-72
2021/10/12 04:02:29;;;;;;;9.98;2.38;;;12.20;99.90;;;;;;5098736;28;20027;-72
2021/10/12 04:04:55;;;;;;;9.88;2.58;;;12.20;99.90;;;;;;5132647;27;20389;-71
2021/10/12 04:07:21;;;;;;;7.60;1.40;;;12.20;99.90;;;;;;5134197;27;20103;-71
2021/10/12 04:09:46;;;;;;;7.20;1.50;;;12.20;99.90;;;;;;5133834;27;20474;-70
2021/10/12 04:12:12;;;;;;;9.10;2.35;;;12.30;99.90;;;;;;5115368;28;20465;-71
2021/10/12 04:14:38;;;;;;;12.30;1.70;;;12.40;99.90;;;;;;5098619;27;20061;-72
2021/10/12 04:17:03;;;;;;;11.05;1.60;;;12.30;99.90;;;;;;5119512;27;20034;-71
2021/10/12 04:19:29;;;;;;;11.48;1.60;;;12.30;99.90;;;;;;5119351;27;20058;-72
2021/10/12 04:21:54;;;;;;;19.85;2.78;;;12.40;99.90;;;;;;5119334;27;20030;-71
2021/10/12 04:24:20;;;;;;;16.17;2.08;;;12.40;99.90;;;;;;5136442;27;20079;-70
2021/10/12 04:26:47;;;;;;;12.00;1.83;;;12.40;99.90;;;;;;5119264;27;20027;-73
2021/10/12 04:29:12;;;;;;;8.50;1.88;;;12.40;99.90;;;;;;5136390;27;20019;-72
2021/10/12 04:31:38;;;;;;;8.82;1.48;;;12.40;99.90;;;;;;5119260;27;20492;-71
2021/10/12 04:34:04;;;;;;;10.23;1.55;;;12.40;99.90;;;;;;5102299;27;20030;-72
2021/10/12 04:36:30;;;;;;;10.73;1.80;;;12.40;99.90;;;;;;5119427;27;20042;-71
2021/10/12 04:38:56;;;;;;;11.70;2.50;;;12.40;99.90;;;;;;5118966;27;20073;-71
2021/10/12 04:41:21;;;;;;;10.18;2.72;;;12.40;99.90;;;;;;5102028;27;20023;-70
2021/10/12 04:43:48;;;;;;;9.18;3.22;;;12.40;99.90;;;;;;5118689;27;20496;-71
2021/10/12 04:46:15;;;;;;;11.48;2.22;;;12.40;99.90;;;;;;5102192;27;20023;-71
2021/10/12 04:48:40;;;;;;;6.47;1.73;;;12.40;99.90;;;;;;5135972;27;20019;-69
2021/10/12 04:51:06;;;;;;;11.05;2.33;;;12.50;99.90;;;;;;5118787;27;20025;-70
2021/10/12 04:53:32;;;;;;;10.02;1.80;;;12.40;99.90;;;;;;5135791;27;20464;-70
2021/10/12 04:55:57;;;;;;;10.20;2.95;;;12.50;99.90;;;;;;5102216;27;20363;-70
2021/10/12 04:58:23;;;;;;;9.82;2.13;;;12.80;99.90;;;;;;5118754;27;20038;-69
2021/10/12 05:00:49;;;;;;;12.35;1.90;;;12.50;99.90;;;;;;5135835;27;20115;-73
2021/10/12 05:03:14;;;;;;;15.70;2.13;;;12.60;99.90;;;;;;5118572;27;20028;-72
2021/10/12 05:05:40;;;;;;;5.25;1.33;;;12.60;99.90;;;;;;5135742;27;20063;-73
2021/10/12 05:08:05;;;;;;;14.00;1.85;;;12.70;99.90;;;;;;5118655;27;20035;-73
2021/10/12 05:10:31;;;;;;;8.50;1.70;;;12.80;99.90;;;;;;5136953;27;20023;-74
2021/10/12 05:12:57;;;;;;;8.88;2.22;;;12.80;99.90;;;;;;5136160;27;20106;-72
2021/10/12 05:15:25;;;;;;;7.35;2.13;;;12.80;99.90;;;;;;5102239;27;20027;-73
2021/10/12 05:17:51;;;;;;;15.18;2.35;;;12.80;99.90;;;;;;5136604;27;20027;-72
2021/10/12 05:20:16;;;;;;;13.02;2.33;;;12.80;99.90;;;;;;5137239;27;20501;-73
2021/10/12 05:22:43;;;;;;;11.50;2.17;;;12.90;99.90;;;;;;5120117;27;20033;-72
2021/10/12 05:25:09;;;;;;;10.82;2.42;;;13.00;99.90;;;;;;5138137;27;20389;-75
2021/10/12 05:27:37;;;;;;;14.70;2.33;;;13.00;99.90;;;;;;5118702;27;20038;-73
2021/10/12 05:30:05;;;;;;;8.73;2.72;;;13.00;99.90;;;;;;5136475;27;20041;-70
2021/10/12 05:32:30;;;;;;;8.30;3.28;;;13.00;99.90;;;;;;5119184;27;20076;-68
2021/10/12 05:34:58;;;;;;;5.15;1.80;;;13.10;99.90;;;;;;5118628;27;20351;-70
2021/10/12 05:37:23;;;;;;;6.85;2.03;;;13.00;99.90;;;;;;5135266;27;20099;-69
2021/10/12 05:39:49;;;;;;;8.05;1.92;;;13.00;99.90;;;;;;5136149;27;20059;-70
2021/10/12 05:42:15;;;;;;;13.00;2.53;;;13.00;99.90;;;;;;5135602;27;20035;-70
2021/10/12 05:44:40;;;;;;;8.93;2.50;;;13.00;99.90;;;;;;5118047;27;20038;-69
2021/10/12 05:47:06;;;;;;;7.75;2.10;;;13.00;99.90;;;;;;5118068;27;20075;-69
2021/10/12 05:49:31;;;;;;;8.75;1.40;;;13.00;99.90;;;;;;5135318;27;20028;-69
2021/10/12 05:51:59;;;;;;;7.85;1.30;;;13.00;99.90;;;;;;5117767;27;20046;-70
2021/10/12 05:54:27;;;;;;;18.85;2.05;;;13.10;99.90;;;;;;5117993;27;20023;-69
2021/10/12 05:56:58;;;;;;;15.80;1.70;;;13.10;99.90;;;;;;5136059;27;20059;-69
2021/10/12 05:59:24;;;;;;;5.95;1.17;;;13.10;99.90;;;;;;5119078;27;20026;-68
2021/10/12 06:01:49;;;;;;;10.95;1.77;;;13.10;99.90;;;;;;5117606;27;20102;-70
2021/10/12 06:04:15;;;;;;;8.32;1.42;;;13.10;99.90;;;;;;5117513;27;20037;-69
2021/10/12 06:06:41;;;;;;;6.85;1.17;;;13.10;99.90;;;;;;5117252;27;20031;-69
2021/10/12 06:09:08;;;;;;;6.43;1.60;;;13.20;99.90;;;;;;5136402;27;20023;-69
2021/10/12 06:11:34;;;;;;;12.07;1.60;;;13.20;99.90;;;;;;5134609;27;20027;-68
2021/10/12 06:13:59;;;;;;;9.73;1.70;;;13.20;99.90;;;;;;5135797;27;20475;-72
2021/10/12 06:16:25;;;;;;;10.15;2.95;;;13.20;99.90;;;;;;5100315;27;20023;-69
2021/10/12 06:18:50;;;;;;;11.82;2.05;;;13.20;99.90;;;;;;5116971;27;20543;-70
2021/10/12 06:21:16;;;;;;;9.93;1.80;;;13.30;99.90;;;;;;5134103;27;20401;-70
2021/10/12 06:23:41;;;;;;;6.75;1.98;;;13.30;99.90;;;;;;5117497;27;20066;-70
2021/10/12 06:26:07;;;;;;;5.55;1.58;;;13.20;99.90;;;;;;5117191;27;20024;-71
2021/10/12 06:28:33;;;;;;;8.93;2.22;;;13.20;99.90;;;;;;5116911;27;20473;-70
2021/10/12 06:30:59;;;;;;;10.55;2.00;;;13.20;99.90;;;;;;5135176;27;20024;-71
2021/10/12 06:33:24;;;;;;;12.00;1.02;;;13.20;99.90;;;;;;5134393;27;20389;-70
2021/10/12 06:35:50;;;;;;;4.03;1.65;;;13.20;99.90;;;;;;5135931;27;20039;-72
2021/10/12 06:38:16;;;;;;;7.70;1.45;;;13.20;99.90;;;;;;5133430;27;20019;-71
2021/10/12 06:40:42;;;;;;;8.38;1.73;;;13.20;99.90;;;;;;5116795;27;20011;-70
2021/10/12 06:43:08;;;;;;;6.20;2.67;;;13.20;99.90;;;;;;5133894;27;20062;-71
2021/10/12 06:45:35;;;;;;;7.82;1.42;;;13.30;99.90;;;;;;5135216;27;20023;-71
2021/10/12 06:48:01;;;;;;;12.73;1.92;;;13.40;99.90;;;;;;5135116;27;20026;-72
2021/10/12 06:50:27;;;;;;;8.05;1.20;;;13.60;99.90;;;;;;5116706;27;20052;-70
2021/10/12 06:52:53;;;;;;;9.13;1.20;;;13.80;99.90;;;;;;5134137;27;20374;-71
2021/10/12 06:55:19;;;;;;;9.05;1.33;;;14.00;99.90;;;;;;5116638;27;20381;-74
2021/10/12 06:57:46;;;;;;;6.38;1.75;;;14.40;99.90;;;;;;5116504;27;20027;-71
2021/10/12 07:00:13;;;;;;;14.48;3.05;;;14.50;99.90;;;;;;5133810;27;20016;-72
2021/10/12 07:02:43;;;;;;;8.73;1.17;;;14.70;99.90;;;;;;5133610;27;20054;-69
2021/10/12 07:05:10;;;;;;;13.55;2.13;;;14.90;99.90;;;;;;5117137;27;20031;-69
2021/10/12 07:07:35;;;;;;;9.27;1.60;;;15.20;99.90;;;;;;5134808;27;20027;-69
2021/10/12 07:10:02;;;;;;;16.00;1.77;;;15.60;99.90;;;;;;5133419;27;20057;-68
2021/10/12 07:12:27;;;;;;;9.52;2.08;;;15.90;99.90;;;;;;5133710;27;20042;-68
2021/10/12 07:14:53;;;;;;;6.55;1.17;;;15.80;99.90;;;;;;5133663;27;20015;-68
2021/10/12 07:17:19;;;;;;;11.15;1.52;;;15.70;99.90;;;;;;5116284;27;20479;-71
2021/10/12 07:19:44;;;;;;;8.70;1.55;;;15.60;99.90;;;;;;5133122;27;20051;-69
2021/10/12 07:22:10;;;;;;;13.18;1.90;;;15.50;99.90;;;;;;5132970;27;20088;-70
2021/10/12 07:24:36;;;;;;;10.23;2.03;;;15.30;99.90;;;;;;5133087;27;20107;-68
2021/10/12 07:27:01;;;;;;;14.13;1.77;;;15.20;99.90;;;;;;5133023;27;20054;-68
2021/10/12 07:29:27;;;;;;;11.13;2.38;;;15.10;99.90;;;;;;5133117;27;20034;-68
2021/10/12 07:31:53;;;;;;;7.80;1.52;;;15.10;99.90;;;;;;5116201;27;20046;-68
2021/10/12 07:34:18;;;;;;;8.57;1.50;;;15.00;99.90;;;;;;5133123;27;20027;-67
2021/10/12 07:36:44;;;;;;;16.05;2.40;;;15.00;99.90;;;;;;5133014;27;20522;-68
2021/10/12 07:39:10;;;;;;;7.22;1.33;;;15.10;99.90;;;;;;5116110;28;20027;-69
2021/10/12 07:41:36;;;;;;;4.00;2.00;;;15.20;99.90;;;;;;5116139;27;20027;-69
2021/10/12 07:44:03;;;;;;;8.02;1.52;;;15.30;99.90;;;;;;5132894;27;20118;-69
2021/10/12 07:46:29;;;;;;;5.72;1.20;;;15.50;99.90;;;;;;5132914;27;20064;-69
2021/10/12 07:48:58;;;;;;;11.93;1.42;;;15.70;99.90;;;;;;5132680;27;20023;-68
2021/10/12 07:51:24;;;;;;;6.15;1.02;;;15.80;99.90;;;;;;5115683;28;20031;-69
2021/10/12 07:53:51;;;;;;;6.15;1.48;;;15.90;99.90;;;;;;5115683;28;20500;-70
2021/10/12 07:56:37;;;;;;;7.32;1.50;;;15.80;99.90;;;;;;5115775;28;20087;-69
2021/10/12 07:59:07;;;;;;;5.80;1.17;;;15.60;99.90;;;;;;5118493;28;20114;-68
2021/10/12 08:01:34;;;;;;;6.45;1.27;;;15.60;99.90;;;;;;5115600;28;20049;-69
2021/10/12 08:04:01;;;;;;;7.88;1.25;;;16.10;99.90;;;;;;5132673;28;20036;-72
2021/10/12 08:06:27;;;;;;;5.22;1.42;;;16.40;99.90;;;;;;5115530;28;20058;-71
2021/10/12 08:08:53;;;;;;;10.02;1.63;;;16.60;99.90;;;;;;5133267;28;20477;-70
2021/10/12 08:11:23;;;;;;;8.10;1.90;;;16.80;99.90;;;;;;5133309;28;20460;-70
2021/10/12 08:13:52;;;;;;;5.22;2.53;;;16.80;99.90;;;;;;5133179;28;20022;-69
2021/10/12 08:16:20;;;;;;;7.32;1.30;;;16.60;99.90;;;;;;5132850;28;20038;-72
2021/10/12 08:18:46;;;;;;;6.00;1.35;;;16.40;99.90;;;;;;5115791;28;20015;-70
2021/10/12 08:21:12;;;;;;;7.63;1.63;;;16.10;99.90;;;;;;5134235;27;20077;-71
2021/10/12 08:23:38;;;;;;;4.82;1.23;;;15.90;99.90;;;;;;5132865;28;20031;-71
2021/10/12 08:26:03;;;;;;;7.47;1.27;;;15.80;99.90;;;;;;5098630;28;20492;-71
2021/10/12 08:28:29;;;;;;;9.43;2.13;;;15.90;99.90;;;;;;5134054;27;20038;-73
2021/10/12 08:30:55;;;;;;;6.38;1.20;;;16.40;99.90;;;;;;5132761;28;20027;-72
2021/10/12 08:33:20;;;;;;;5.88;1.00;;;16.60;99.90;;;;;;5132637;28;20024;-70
2021/10/12 08:35:46;;;;;;;9.13;1.63;;;16.40;99.90;;;;;;5133844;27;20035;-72
2021/10/12 08:38:19;;;;;;;10.68;3.70;;;16.10;99.90;;;;;;5134147;27;20465;-74
2021/10/12 08:40:45;;;;;;;8.93;2.00;;;15.70;99.90;;;;;;5134683;27;20385;-76
2021/10/12 08:43:12;;;;;;;8.07;1.13;;;15.20;99.90;;;;;;5135122;27;20027;-74
2021/10/12 08:45:39;;;;;;;3.30;0.65;;;14.70;99.90;;;;;;5133141;28;20027;-83
2021/10/12 08:48:06;;;;;;;3.28;0.93;;;14.10;99.90;;;;;;5133614;27;20469;-81
2021/10/12 08:50:32;;;;;;;6.78;1.83;;;13.80;99.90;;;;;;5119696;28;20030;-79
2021/10/12 08:53:01;;;;;;;6.65;1.30;;;13.50;99.90;;;;;;5132585;28;20080;-75
2021/10/12 08:55:28;;;;;;;12.65;1.88;;;13.40;99.90;;;;;;5098782;28;20031;-74
2021/10/12 08:57:53;;;;;;;7.85;0.93;;;13.30;99.90;;;;;;5132633;28;20020;-75
2021/10/12 09:00:21;;;;;;;9.57;1.65;;;13.30;99.90;;;;;;5133091;27;20092;-74
2021/10/12 09:03:39;;;;;;;7.88;1.92;;;13.40;99.90;;;;;;5102162;27;20404;-74
2021/10/12 09:06:03;;;;;;;8.73;1.40;;;13.50;99.90;;;;;;5132906;27;20038;-72
2021/10/12 09:08:35;;;;;;;11.77;1.40;;;13.40;99.90;;;;;;5119463;27;20033;-76
2021/10/12 09:11:03;;;;;;;9.27;1.20;;;13.50;99.90;;;;;;5120788;27;20027;-73
2021/10/12 09:13:29;;;;;;;10.18;1.48;;;13.60;99.90;;;;;;5136734;27;20054;-75
2021/10/12 09:16:05;;;;;;;7.82;2.55;;;13.70;99.90;;;;;;5139243;27;20020;-73
2021/10/12 09:18:57;;;;;;;8.68;1.05;;;13.70;99.90;;;;;;5144807;27;20058;-73
2021/10/12 09:21:29;;;;;;;7.65;1.33;;;13.80;99.90;;;;;;5125794;27;20096;-73
2021/10/12 09:24:01;;;;;;;6.70;1.00;;;13.80;99.90;;;;;;5127419;27;20027;-74
2021/10/12 09:26:31;;;;;;;2.85;0.80;;;13.90;99.90;;;;;;5137406;27;20118;-75
2021/10/12 09:29:22;;;;;;;5.10;0.90;;;14.00;99.90;;;;;;5137686;27;20027;-75
2021/10/12 09:31:47;;;;;;;4.40;1.05;;;14.00;99.90;;;;;;5136762;27;20023;-75
2021/10/12 09:34:15;;;;;;;9.02;1.27;;;14.10;99.90;;;;;;5136976;27;20037;-74
2021/10/12 09:36:42;;;;;;;4.38;1.80;;;14.00;99.90;;;;;;5118410;27;20715;-74
2021/10/12 09:39:17;;;;;;;7.18;1.38;;;14.00;99.90;;;;;;5135671;27;20019;-75
2021/10/12 09:41:44;;;;;;;2.67;0.80;;;14.10;99.90;;;;;;5135730;27;20019;-73
2021/10/12 09:44:18;;;;;;;6.20;2.00;;;14.10;99.90;;;;;;5118782;27;20078;-77
2021/10/12 09:46:52;;;;;;;7.17;1.20;;;14.10;99.90;;;;;;5118612;27;20389;-76
2021/10/12 09:49:22;;;;;;;4.90;1.30;;;14.00;99.90;;;;;;5136105;27;20023;-75
2021/10/12 09:51:59;;;;;;;7.03;1.55;;;13.70;99.90;;;;;;5118170;27;20015;-75
2021/10/12 09:54:27;;;;;;;3.80;1.65;;;13.50;99.90;;;;;;5117840;27;20062;-76
2021/10/12 09:56:53;;;;;;;3.75;1.05;;;13.50;99.90;;;;;;5118311;27;20035;-78
2021/10/12 09:59:18;;;;;;;4.50;0.70;;;13.40;99.90;;;;;;5118699;27;20039;-82
2021/10/12 10:01:46;;;;;;;3.60;1.05;;;13.30;99.90;;;;;;5118428;27;20076;-80
2021/10/12 10:04:16;;;;;;;3.13;1.23;;;13.10;99.90;;;;;;5135720;27;20058;-80
2021/10/12 10:06:43;;;;;;;4.85;1.13;;;13.80;99.90;;;;;;5135977;27;20061;-84
2021/10/12 10:09:11;;;;;;;2.15;0.82;;;13.20;99.90;;;;;;5118683;27;20023;-77
2021/10/12 10:11:42;;;;;;;4.10;1.75;;;13.30;99.90;;;;;;5135536;27;20022;-77
2021/10/12 10:14:09;;;;;;;2.53;0.85;;;13.40;99.90;;;;;;5102160;27;20519;-78
2021/10/12 10:16:37;;;;;;;3.80;0.70;;;13.50;99.90;;;;;;5135586;27;20024;-80
2021/10/12 10:19:09;;;;;;;3.17;1.00;;;13.50;99.90;;;;;;5136822;27;20039;-78
2021/10/12 10:21:41;;;;;;;4.13;0.95;;;13.60;99.90;;;;;;5118607;27;20508;-75
2021/10/12 10:24:21;;;;;;;2.30;0.80;;;14.20;99.90;;;;;;5137271;27;20043;-82
2021/10/12 10:26:46;;;;;;;0.73;0.57;;;13.70;99.90;;;;;;5120297;27;20377;-77
2021/10/12 10:29:36;;;;;;;2.85;0.93;;;13.80;99.90;;;;;;5136066;27;20102;-78
2021/10/12 10:32:15;;;;;;;3.40;0.75;;;14.00;99.90;;;;;;5135206;27;20124;-76
2021/10/12 10:34:40;;;;;;;1.67;0.82;;;14.40;99.90;;;;;;5134806;27;20011;-75
2021/10/12 10:37:15;;;;;;;2.05;1.13;;;14.70;99.90;;;;;;5135857;27;20031;-73
2021/10/12 10:39:42;;;;;;;3.20;0.75;;;14.70;99.90;;;;;;5134710;27;20084;-75
2021/10/12 10:42:07;;;;;;;0.55;0.43;;;14.80;99.90;;;;;;5135479;27;20027;-75
2021/10/12 10:45:05;;;;;;;1.80;0.52;;;14.90;99.90;;;;;;5117076;27;20091;-74
2021/10/12 10:47:45;;;;;;;2.33;0.40;;;14.80;99.90;;;;;;5135049;27;20023;-76
2021/10/12 10:50:12;;;;;;;1.73;0.50;;;15.00;99.90;;;;;;5135357;27;20019;-73
2021/10/12 10:52:46;;;;;;;2.40;0.50;;;15.10;99.90;;;;;;5133805;27;20027;-73
2021/10/12 10:55:18;;;;;;;;;;;15.30;99.90;;;;;;5117045;27;20102;-73
2021/10/12 10:58:07;;;;;;;0.43;0.20;;;15.30;99.90;;;;;;5133727;27;20254;-74
2021/10/12 11:00:54;;;;;;;2.15;0.55;;;15.20;99.90;;;;;;5134056;27;20377;-75
2021/10/12 11:03:28;;;;;;;0.68;0.30;;;15.30;99.90;;;;;;5133645;27;20027;-74
2021/10/12 11:05:57;;;;;;;2.05;0.60;;;15.30;99.90;;;;;;5134121;27;20019;-74
2021/10/12 11:08:25;;;;;;;2.47;0.30;;;15.30;99.90;;;;;;5116607;27;20011;-74
2021/10/12 11:10:56;;;;;;;1.27;0.30;;;15.30;99.90;;;;;;5133834;27;20031;-76
2021/10/12 11:13:43;;;;;;;3.85;0.73;;;15.40;99.90;;;;;;5134096;27;20418;-72
2021/10/12 11:16:16;;;;;;;4.82;1.00;;;15.40;99.90;;;;;;5116370;27;20023;-74
2021/10/12 11:18:47;;;;;;;2.13;0.73;;;15.50;99.90;;;;;;5116234;27;20019;-73
2021/10/12 11:21:17;;;;;;;0.77;0.38;;;15.50;99.90;;;;;;5133515;27;20065;-72
2021/10/12 11:23:57;;;;;;;1.15;0.30;;;15.20;99.90;;;;;;5133627;27;20034;-73
2021/10/12 11:26:27;;;;;;;3.20;0.95;;;14.80;99.90;;;;;;5117059;27;20019;-73
2021/10/12 11:28:58;;;;;;;2.42;1.13;;;14.40;99.90;;;;;;5116508;27;20015;-74
2021/10/12 11:31:28;;;;;;;4.18;0.85;;;14.20;99.90;;;;;;5116162;27;20053;-72
2021/10/12 11:33:56;;;;;;;6.68;0.80;;;14.00;99.90;;;;;;5133314;27;20019;-74
2021/10/12 11:36:24;;;;;;;5.68;0.47;;;14.00;99.90;;;;;;5133210;27;20019;-73
2021/10/12 11:38:57;;;;;;;4.43;0.52;;;13.80;99.90;;;;;;5133675;27;20023;-72
2021/10/12 11:41:33;;;;;;;6.18;1.05;;;13.80;99.90;;;;;;5133195;27;20023;-71
2021/10/12 11:44:16;;;;;;;8.40;0.88;;;13.60;99.90;;;;;;5134131;27;20041;-74
2021/10/12 11:46:55;;;;;;;6.32;1.42;;;13.70;99.90;;;;;;5133526;27;20106;-72
2021/10/12 11:49:23;;;;;;;2.53;0.47;;;13.90;99.90;;;;;;5099739;28;20024;-76
2021/10/12 11:51:50;;;;;;;2.17;0.63;;;14.20;99.90;;;;;;5099610;28;20032;-72
2021/10/12 11:54:25;;;;;;;2.42;0.93;;;14.50;99.90;;;;;;5132808;27;20034;-72
2021/10/12 11:56:57;;;;;;;3.10;0.60;;;14.50;99.90;;;;;;5132946;28;20064;-70
2021/10/12 11:59:25;;;;;;;1.45;0.55;;;14.20;99.90;;;;;;5116881;28;20021;-71
2021/10/12 12:01:52;;;;;;;4.15;0.65;;;14.00;99.90;;;;;;5133137;28;20025;-71
2021/10/12 12:04:29;;;;;;;2.78;0.70;;;13.80;99.90;;;;;;5133102;28;20109;-71
2021/10/12 12:06:56;;;;;;;9.73;0.93;;;13.60;99.90;;;;;;5132982;28;20019;-72
2021/10/12 12:09:24;;;;;;;5.00;0.85;;;13.60;99.90;;;;;;5133072;28;20109;-70
2021/10/12 12:11:52;;;;;;;3.53;0.60;;;13.50;99.90;;;;;;5134102;27;20056;-71
2021/10/12 12:14:25;;;;;;;7.50;0.90;;;13.50;99.90;;;;;;5132928;28;20023;-72
2021/10/12 12:17:14;;;;;;;5.80;1.40;;;13.70;99.90;;;;;;5133076;28;20106;-72
2021/10/12 12:19:42;;;;;;;5.43;0.90;;;13.80;99.90;;;;;;5132883;28;20043;-71
2021/10/12 12:22:16;;;;;;;6.05;0.82;;;14.00;99.90;;;;;;5132712;27;20027;-72
2021/10/12 12:25:10;;;;;;;7.07;0.93;;;14.10;99.90;;;;;;5115598;28;20073;-70
2021/10/12 12:27:57;;;;;;;5.85;0.85;;;14.10;99.90;;;;;;5115765;28;20107;-71
2021/10/12 12:30:36;;;;;;;5.75;0.70;;;14.20;99.90;;;;;;5115377;28;20482;-72
2021/10/12 12:33:02;;;;;;;6.57;1.10;;;14.30;99.90;;;;;;5132671;28;20102;-71
2021/10/12 12:35:28;;;;;;;2.03;0.68;;;14.30;99.90;;;;;;5133951;27;20096;-73
2021/10/12 12:37:59;;;;;;;4.95;0.90;;;14.30;99.90;;;;;;5136416;27;20469;-72
2021/10/12 12:40:29;;;;;;;5.55;0.85;;;14.30;99.90;;;;;;5119815;27;20023;-72
2021/10/12 12:42:55;;;;;;;2.65;0.65;;;14.40;99.90;;;;;;5138370;27;20480;-71
2021/10/12 12:45:24;;;;;;;1.63;0.45;;;14.30;99.90;;;;;;5119316;27;20047;-71
2021/10/12 12:47:54;;;;;;;4.32;0.70;;;14.30;99.90;;;;;;5119400;27;20069;-71
2021/10/12 12:50:34;;;;;;;3.90;0.75;;;14.40;99.90;;;;;;5137563;27;20015;-70